createdAt,value
2022-08-05T00:02:22.766Z,18.80
2022-08-05T00:04:55.158Z,18.70
2022-08-05T00:07:59.080Z,18.70
2022-08-05T00:10:11.964Z,18.70
2022-08-05T00:12:55.747Z,18.70
2022-08-05T00:15:56.136Z,18.70
2022-08-05T00:18:21.327Z,18.60
2022-08-05T00:20:49.929Z,18.70
2022-08-05T00:23:17.297Z,18.70
2022-08-05T00:26:05.025Z,18.60
2022-08-05T00:28:32.939Z,18.50
2022-08-05T00:31:04.126Z,18.50
2022-08-05T00:34:53.219Z,18.40
2022-08-05T00:37:11.630Z,18.40
2022-08-05T00:39:14.029Z,18.30
2022-08-05T00:41:55.260Z,18.30
2022-08-05T00:44:30.314Z,18.30
2022-08-05T00:47:04.271Z,18.30
2022-08-05T00:49:44.603Z,18.30
2022-08-05T00:52:28.401Z,18.30
2022-08-05T00:54:56.295Z,18.30
2022-08-05T00:57:25.459Z,18.30
2022-08-05T00:59:59.542Z,18.30
2022-08-05T01:02:28.493Z,18.20
2022-08-05T01:04:55.636Z,18.20
2022-08-05T01:07:31.632Z,18.30
2022-08-05T01:09:59.785Z,18.20
2022-08-05T01:12:29.841Z,18.20
2022-08-05T01:15:05.475Z,18.20
2022-08-05T01:17:39.919Z,18.20
2022-08-05T01:20:29.547Z,18.20
2022-08-05T01:23:15.323Z,18.20
2022-08-05T01:25:56.286Z,18.10
2022-08-05T01:28:51.441Z,18.10
2022-08-05T01:31:24.791Z,18.10
2022-08-05T01:34:04.919Z,18.00
2022-08-05T01:36:47.304Z,18.00
2022-08-05T01:39:36.079Z,18.00
2022-08-05T01:42:06.556Z,17.90
2022-08-05T01:44:39.377Z,17.90
2022-08-05T01:47:09.610Z,17.90
2022-08-05T01:50:00.126Z,17.90
2022-08-05T01:52:37.542Z,17.80
2022-08-05T01:55:09.637Z,17.80
2022-08-05T01:58:10.722Z,17.80
2022-08-05T02:00:31.837Z,17.80
2022-08-05T02:03:05.484Z,17.70
2022-08-05T02:05:36.732Z,17.70
2022-08-05T02:08:04.905Z,17.70
2022-08-05T02:10:41.032Z,17.70
2022-08-05T02:13:22.043Z,17.70
2022-08-05T02:15:59.279Z,17.70
2022-08-05T02:18:35.187Z,17.70
2022-08-05T02:21:14.845Z,17.60
2022-08-05T02:23:46.032Z,17.60
2022-08-05T02:26:18.635Z,17.60
2022-08-05T02:28:50.434Z,17.50
2022-08-05T02:31:24.535Z,17.60
2022-08-05T02:34:01.310Z,17.60
2022-08-05T02:36:31.669Z,17.50
2022-08-05T02:39:01.888Z,17.50
2022-08-05T02:41:43.206Z,17.50
2022-08-05T02:44:23.826Z,17.50
2022-08-05T02:46:59.889Z,17.50
2022-08-05T02:49:37.675Z,17.50
2022-08-05T02:52:29.967Z,17.40
2022-08-05T02:55:01.801Z,17.40
2022-08-05T02:58:11.881Z,17.40
2022-08-05T03:00:20.929Z,17.40
2022-08-05T03:02:53.838Z,17.30
2022-08-05T03:05:21.924Z,17.30
2022-08-05T03:08:11.433Z,17.30
2022-08-05T03:10:39.105Z,17.30
2022-08-05T03:13:18.349Z,17.30
2022-08-05T03:15:47.484Z,17.30
2022-08-05T03:18:17.466Z,17.30
2022-08-05T03:20:48.934Z,17.30
2022-08-05T03:23:18.060Z,17.30
2022-08-05T03:26:30.027Z,17.20
2022-08-05T03:28:35.166Z,17.20
2022-08-05T03:31:04.207Z,17.20
2022-08-05T03:33:42.346Z,17.20
2022-08-05T03:36:30.183Z,17.20
2022-08-05T03:38:59.341Z,17.20
2022-08-05T03:41:32.928Z,17.20
2022-08-05T03:44:11.637Z,17.20
2022-08-05T03:46:39.896Z,17.20
2022-08-05T03:49:07.075Z,17.20
2022-08-05T03:52:37.090Z,17.20
2022-08-05T03:56:05.655Z,17.20
2022-08-05T03:57:53.755Z,17.30
2022-08-05T04:00:26.715Z,17.30
2022-08-05T04:02:58.535Z,17.20
2022-08-05T04:05:35.796Z,17.20
2022-08-05T04:08:14.485Z,17.30
2022-08-05T04:10:53.983Z,17.30
2022-08-05T04:13:22.508Z,17.30
2022-08-05T04:16:02.710Z,17.40
2022-08-05T04:18:34.719Z,17.50
2022-08-05T04:21:04.011Z,17.50
2022-08-05T04:24:05.015Z,17.50
2022-08-05T04:26:20.298Z,17.60
2022-08-05T04:28:51.064Z,17.60
2022-08-05T04:31:20.145Z,17.70
2022-08-05T04:34:17.011Z,17.70
2022-08-05T04:36:45.648Z,17.90
2022-08-05T04:39:13.824Z,17.90
2022-08-05T04:41:44.374Z,18.00
2022-08-05T04:44:14.361Z,18.00
2022-08-05T04:46:43.543Z,18.10
2022-08-05T04:49:19.176Z,18.20
2022-08-05T04:52:00.390Z,18.30
2022-08-05T04:54:30.776Z,18.40
2022-08-05T04:57:01.672Z,18.50
2022-08-05T04:59:40.468Z,18.50
2022-08-05T05:02:41.217Z,18.70
2022-08-05T05:05:01.636Z,18.70
2022-08-05T05:07:31.926Z,18.80
2022-08-05T05:10:02.161Z,18.80
2022-08-05T05:12:30.487Z,19.00
2022-08-05T05:14:57.583Z,19.10
2022-08-05T05:17:55.761Z,19.20
2022-08-05T05:20:13.735Z,19.40
2022-08-05T05:22:44.140Z,19.60
2022-08-05T05:25:16.444Z,19.60
2022-08-05T05:27:53.801Z,19.80
2022-08-05T05:30:30.866Z,19.90
2022-08-05T05:33:15.827Z,20.10
2022-08-05T05:35:45.716Z,20.30
2022-08-05T05:38:14.154Z,20.40
2022-08-05T05:40:50.078Z,20.50
2022-08-05T05:43:22.209Z,20.60
2022-08-05T05:46:15.748Z,20.70
2022-08-05T05:48:47.879Z,20.90
2022-08-05T05:51:25.753Z,21.10
2022-08-05T05:53:58.564Z,21.20
2022-08-05T05:56:33.004Z,21.80
2022-08-05T05:59:05.113Z,23.70
2022-08-05T06:01:39.428Z,26.40
2022-08-05T06:04:11.391Z,28.80
2022-08-05T06:06:47.798Z,30.40
2022-08-05T06:09:24.906Z,32.30
2022-08-05T06:11:59.903Z,33.80
2022-08-05T06:14:31.810Z,34.70
2022-08-05T06:17:22.227Z,34.70
2022-08-05T06:19:57.040Z,35.80
2022-08-05T06:22:33.449Z,36.50
2022-08-05T06:25:24.465Z,36.00
2022-08-05T06:28:12.442Z,36.10
2022-08-05T06:30:36.796Z,36.50
2022-08-05T06:33:04.354Z,37.10
2022-08-05T06:36:07.228Z,37.80
2022-08-05T06:38:36.578Z,38.60
2022-08-05T06:41:08.198Z,38.60
2022-08-05T06:43:58.246Z,38.70
2022-08-05T06:46:30.246Z,38.80
2022-08-05T06:49:00.791Z,38.40
2022-08-05T06:51:30.750Z,37.70
2022-08-05T06:54:03.693Z,37.40
2022-08-05T06:56:34.970Z,36.70
2022-08-05T06:59:04.760Z,37.20
2022-08-05T07:01:38.685Z,37.80
2022-08-05T07:04:08.886Z,38.60
2022-08-05T07:06:36.097Z,39.60
2022-08-05T07:09:06.314Z,40.10
2022-08-05T07:11:37.173Z,40.30
2022-08-05T07:14:38.807Z,40.40
2022-08-05T07:18:02.422Z,40.60
2022-08-05T07:20:30.978Z,40.20
2022-08-05T07:22:42.629Z,41.60
2022-08-05T07:25:53.866Z,41.20
2022-08-05T07:28:03.911Z,40.70
2022-08-05T07:30:39.049Z,40.50
2022-08-05T07:33:10.627Z,40.50
2022-08-05T07:36:01.815Z,41.40
2022-08-05T07:38:34.973Z,41.80
2022-08-05T07:41:34.958Z,41.90
2022-08-05T07:44:06.583Z,42.60
2022-08-05T07:46:42.107Z,41.90
2022-08-05T07:49:16.195Z,41.90
2022-08-05T07:51:53.909Z,41.70
2022-08-05T07:54:30.629Z,41.70
2022-08-05T07:57:01.626Z,41.80
2022-08-05T07:59:42.450Z,42.10
2022-08-05T08:02:15.742Z,42.50
2022-08-05T08:04:48.259Z,42.00
2022-08-05T08:07:17.933Z,41.90
2022-08-05T08:09:46.829Z,42.00
2022-08-05T08:12:35.236Z,42.20
2022-08-05T08:15:13.933Z,43.00
2022-08-05T08:17:46.202Z,43.00
2022-08-05T08:21:00.009Z,43.70
2022-08-05T08:23:59.672Z,44.30
2022-08-05T08:26:00.068Z,43.40
2022-08-05T08:28:36.509Z,42.70
2022-08-05T08:31:07.048Z,41.90
2022-08-05T08:33:38.589Z,42.80
2022-08-05T08:38:57.266Z,43.00
2022-08-05T08:41:50.609Z,42.70
2022-08-05T08:45:16.543Z,42.90
2022-08-05T08:47:46.834Z,42.80
2022-08-05T08:50:12.900Z,42.10
2022-08-05T08:52:52.859Z,40.50
2022-08-05T08:56:02.913Z,39.80
2022-08-05T08:58:12.737Z,38.90
2022-08-05T09:00:42.670Z,38.10
2022-08-05T09:03:11.848Z,37.30
2022-08-05T09:06:08.663Z,36.90
2022-08-05T09:08:31.153Z,36.20
2022-08-05T09:10:58.745Z,35.80
2022-08-05T09:13:31.688Z,35.50
2022-08-05T09:16:14.548Z,34.90
2022-08-05T09:18:44.568Z,34.70
2022-08-05T09:21:20.744Z,34.30
2022-08-05T09:24:10.258Z,34.20
2022-08-05T09:26:38.050Z,34.30
2022-08-05T09:29:17.524Z,34.10
2022-08-05T09:32:40.193Z,34.20
2022-08-05T09:34:56.390Z,34.00
2022-08-05T09:38:12.917Z,33.90
2022-08-05T09:40:30.126Z,34.10
2022-08-05T09:43:01.268Z,33.80
2022-08-05T09:46:06.647Z,34.10
2022-08-05T09:48:30.499Z,34.30
2022-08-05T09:51:00.683Z,34.30
2022-08-05T09:53:53.183Z,34.40
2022-08-05T09:56:30.031Z,34.50
2022-08-05T09:59:00.699Z,34.20
2022-08-05T10:01:34.198Z,34.40
2022-08-05T10:04:10.600Z,34.60
2022-08-05T10:06:54.633Z,34.80
2022-08-05T10:09:27.266Z,34.50
2022-08-05T10:12:30.037Z,34.50
2022-08-05T10:15:17.335Z,34.80
2022-08-05T10:18:11.845Z,34.80
2022-08-05T10:20:44.314Z,34.80
2022-08-05T10:23:22.112Z,34.70
2022-08-05T10:26:14.552Z,34.70
2022-08-05T10:28:44.890Z,34.70
2022-08-05T10:32:48.937Z,34.20
2022-08-05T10:34:06.995Z,34.10
2022-08-05T10:36:37.983Z,34.40
2022-08-05T10:39:11.872Z,34.60
2022-08-05T10:42:04.680Z,34.80
2022-08-05T10:44:33.351Z,34.80
2022-08-05T10:47:26.596Z,35.00
2022-08-05T10:50:32.299Z,35.10
2022-08-05T10:52:58.774Z,35.00
2022-08-05T10:55:27.422Z,35.00
2022-08-05T10:58:11.884Z,35.10
2022-08-05T11:00:48.419Z,35.10
2022-08-05T11:03:26.343Z,34.90
2022-08-05T11:06:15.513Z,34.90
2022-08-05T11:09:31.941Z,34.80
2022-08-05T11:12:26.732Z,34.70
2022-08-05T11:15:21.459Z,34.80
2022-08-05T11:17:57.343Z,35.00
2022-08-05T11:20:43.978Z,35.00
2022-08-05T11:23:33.568Z,35.10
2022-08-05T11:26:28.646Z,34.90
2022-08-05T11:28:57.059Z,35.00
2022-08-05T11:31:54.312Z,34.70
2022-08-05T11:34:37.085Z,34.70
2022-08-05T11:37:06.109Z,34.70
2022-08-05T11:40:00.836Z,34.90
2022-08-05T11:42:37.977Z,35.10
2022-08-05T11:45:14.328Z,35.20
2022-08-05T11:47:51.103Z,35.50
2022-08-05T11:50:22.896Z,35.40
2022-08-05T11:52:53.146Z,35.40
2022-08-05T11:55:32.082Z,35.60
2022-08-05T11:58:11.053Z,35.40
2022-08-05T12:00:41.662Z,35.30
2022-08-05T12:03:29.556Z,35.10
2022-08-05T12:06:02.194Z,35.40
2022-08-05T12:08:31.448Z,35.40
2022-08-05T12:11:05.913Z,35.40
2022-08-05T12:13:48.478Z,35.10
2022-08-05T12:16:20.062Z,35.20
2022-08-05T12:18:53.664Z,35.20
2022-08-05T12:21:26.577Z,35.10
2022-08-05T12:24:00.212Z,35.20
2022-08-05T12:26:36.166Z,35.20
2022-08-05T12:29:09.331Z,35.20
2022-08-05T12:31:43.521Z,35.50
2022-08-05T12:34:20.279Z,35.50
2022-08-05T12:36:50.379Z,35.60
2022-08-05T12:39:18.217Z,35.50
2022-08-05T12:41:45.906Z,35.50
2022-08-05T12:44:21.767Z,35.30
2022-08-05T12:47:02.202Z,35.10
2022-08-05T12:50:05.146Z,35.00
2022-08-05T12:52:39.444Z,35.00
2022-08-05T12:55:22.458Z,35.00
2022-08-05T12:58:51.430Z,35.00
2022-08-05T13:02:03.099Z,35.00
2022-08-05T13:03:32.332Z,35.20
2022-08-05T13:06:01.529Z,35.30
2022-08-05T13:08:32.314Z,35.20
2022-08-05T13:11:02.245Z,35.10
2022-08-05T13:14:04.637Z,35.10
2022-08-05T13:16:19.605Z,35.20
2022-08-05T13:18:58.351Z,35.30
2022-08-05T13:21:27.882Z,35.40
2022-08-05T13:23:56.537Z,35.30
2022-08-05T13:26:30.055Z,35.20
2022-08-05T13:28:59.196Z,35.30
2022-08-05T13:32:03.320Z,35.30
2022-08-05T13:34:21.751Z,35.30
2022-08-05T13:36:54.067Z,35.30
2022-08-05T13:40:13.918Z,35.50
2022-08-05T13:42:14.670Z,35.40
2022-08-05T13:44:45.799Z,35.10
2022-08-05T13:47:35.920Z,35.10
2022-08-05T13:50:04.106Z,34.80
2022-08-05T13:52:35.224Z,35.00
2022-08-05T13:55:07.633Z,34.70
2022-08-05T13:57:51.288Z,34.70
2022-08-05T14:00:27.042Z,34.60
2022-08-05T14:02:57.311Z,34.60
2022-08-05T14:05:48.407Z,34.70
2022-08-05T14:08:21.017Z,34.80
2022-08-05T14:10:59.728Z,34.80
2022-08-05T14:13:36.017Z,34.80
2022-08-05T14:16:07.194Z,34.70
2022-08-05T14:18:38.001Z,34.80
2022-08-05T14:22:07.011Z,34.90
2022-08-05T14:23:53.872Z,34.90
2022-08-05T14:26:36.828Z,34.90
2022-08-05T14:29:15.757Z,34.70
2022-08-05T14:32:02.672Z,34.80
2022-08-05T14:34:35.433Z,34.80
2022-08-05T14:37:05.215Z,34.80
2022-08-05T14:39:49.430Z,34.70
2022-08-05T14:42:21.409Z,34.70
2022-08-05T14:44:50.228Z,34.80
2022-08-05T14:47:58.333Z,34.70
2022-08-05T14:50:17.767Z,34.60
2022-08-05T14:52:57.594Z,34.70
2022-08-05T14:55:28.744Z,34.80
2022-08-05T14:58:10.956Z,35.00
2022-08-05T15:00:58.858Z,35.00
2022-08-05T15:03:33.364Z,34.90
2022-08-05T15:06:15.447Z,35.00
2022-08-05T15:09:01.226Z,34.80
2022-08-05T15:11:52.990Z,34.70
2022-08-05T15:14:34.426Z,34.60
2022-08-05T15:17:44.272Z,34.70
2022-08-05T15:19:53.014Z,34.60
2022-08-05T15:22:22.573Z,34.70
2022-08-05T15:24:55.797Z,34.70
2022-08-05T15:27:25.749Z,34.70
2022-08-05T15:29:56.780Z,34.70
2022-08-05T15:32:27.502Z,34.60
2022-08-05T15:34:57.403Z,34.70
2022-08-05T15:38:34.763Z,34.70
2022-08-05T15:40:58.699Z,34.70
2022-08-05T15:43:10.890Z,34.70
2022-08-05T15:45:45.714Z,34.60
2022-08-05T15:48:15.255Z,34.50
2022-08-05T15:50:43.936Z,34.40
2022-08-05T15:53:14.424Z,34.40
2022-08-05T15:56:04.021Z,34.30
2022-08-05T15:58:35.790Z,34.20
2022-08-05T16:01:16.086Z,34.10
2022-08-05T16:03:51.046Z,34.00
2022-08-05T16:06:20.635Z,34.00
2022-08-05T16:08:53.609Z,33.80
2022-08-05T16:11:39.974Z,33.80
2022-08-05T16:14:09.006Z,33.70
2022-08-05T16:16:37.298Z,33.60
2022-08-05T16:19:05.086Z,33.40
2022-08-05T16:22:00.111Z,33.20
2022-08-05T16:24:39.777Z,33.00
2022-08-05T16:27:07.831Z,32.80
2022-08-05T16:29:37.609Z,32.60
2022-08-05T16:32:09.802Z,32.50
2022-08-05T16:34:39.269Z,32.40
2022-08-05T16:38:00.333Z,32.20
2022-08-05T16:40:04.944Z,32.10
2022-08-05T16:42:35.219Z,32.00
2022-08-05T16:45:05.977Z,31.80
2022-08-05T16:47:55.607Z,31.60
2022-08-05T16:50:26.105Z,31.40
2022-08-05T16:52:53.146Z,31.20
2022-08-05T16:55:24.668Z,31.10
2022-08-05T16:58:01.271Z,30.90
2022-08-05T17:00:35.043Z,30.70
2022-08-05T17:03:15.280Z,30.50
2022-08-05T17:05:53.960Z,30.30
2022-08-05T17:08:36.162Z,30.20
2022-08-05T17:11:16.860Z,29.90
2022-08-05T17:13:45.695Z,29.60
2022-08-05T17:16:30.309Z,29.50
2022-08-05T17:19:01.411Z,29.20
2022-08-05T17:21:35.976Z,29.10
2022-08-05T17:24:18.481Z,28.90
2022-08-05T17:26:56.141Z,28.70
2022-08-05T17:29:33.854Z,28.60
2022-08-05T17:32:11.681Z,28.50
2022-08-05T17:34:47.699Z,28.30
2022-08-05T17:37:39.648Z,28.20
2022-08-05T17:40:10.151Z,28.00
2022-08-05T17:42:42.912Z,27.90
2022-08-05T17:45:20.270Z,27.80
2022-08-05T17:47:55.059Z,27.60
2022-08-05T17:50:28.149Z,27.50
2022-08-05T17:53:02.153Z,27.40
2022-08-05T17:55:37.217Z,27.30
2022-08-05T17:58:12.778Z,27.30
2022-08-05T18:00:47.699Z,27.20
2022-08-05T18:06:11.180Z,27.10
2022-08-05T18:08:44.919Z,27.20
2022-08-05T18:11:23.188Z,27.20
2022-08-05T18:13:51.883Z,27.30
2022-08-05T18:16:20.387Z,27.20
2022-08-05T18:18:49.888Z,27.20
2022-08-05T18:21:23.031Z,27.10
2022-08-05T18:23:54.466Z,27.00
2022-08-05T18:26:27.739Z,26.90
2022-08-05T18:28:57.423Z,26.80
2022-08-05T18:31:25.168Z,26.60
2022-08-05T18:33:54.137Z,26.50
2022-08-05T18:36:27.924Z,26.30
2022-08-05T18:38:56.130Z,26.20
2022-08-05T18:41:58.475Z,26.10
2022-08-05T18:44:12.756Z,26.00
2022-08-05T18:46:41.049Z,25.90
2022-08-05T18:49:44.521Z,25.70
2022-08-05T18:52:35.851Z,25.60
2022-08-05T18:55:10.693Z,25.60
2022-08-05T18:57:50.178Z,25.50
2022-08-05T19:00:29.193Z,25.50
2022-08-05T19:03:03.275Z,25.40
2022-08-05T19:06:13.288Z,25.40
2022-08-05T19:08:19.815Z,25.30
2022-08-05T19:10:50.054Z,25.30
2022-08-05T19:13:17.916Z,25.10
2022-08-05T19:15:58.765Z,25.00
2022-08-05T19:18:28.997Z,25.00
2022-08-05T19:20:56.951Z,24.90
2022-08-05T19:24:05.997Z,24.80
2022-08-05T19:26:12.773Z,24.80
2022-08-05T19:28:42.418Z,24.70
2022-08-05T19:31:13.205Z,24.70
2022-08-05T19:33:48.656Z,24.70
2022-08-05T19:36:26.722Z,24.60
2022-08-05T19:39:00.565Z,24.60
2022-08-05T19:41:58.057Z,24.50
2022-08-05T19:44:15.383Z,24.50
2022-08-05T19:46:43.675Z,24.50
2022-08-05T19:49:14.438Z,24.50
2022-08-05T19:52:08.505Z,24.40
2022-08-05T19:54:33.022Z,24.40
2022-08-05T19:57:08.321Z,24.40
2022-08-05T20:00:01.047Z,24.30
2022-08-05T20:02:31.490Z,24.30
2022-08-05T20:04:59.892Z,24.20
2022-08-05T20:07:47.182Z,24.20
2022-08-05T20:10:17.505Z,24.20
2022-08-05T20:12:49.178Z,24.10
2022-08-05T20:15:48.620Z,24.00
2022-08-05T20:18:10.075Z,24.00
2022-08-05T20:20:55.991Z,23.90
2022-08-05T20:23:40.480Z,23.80
2022-08-05T20:26:15.237Z,23.90
2022-08-05T20:28:44.484Z,23.90
2022-08-05T20:31:12.136Z,23.90
2022-08-05T20:33:42.339Z,24.00
2022-08-05T20:36:11.218Z,24.00
2022-08-05T20:38:40.676Z,24.00
2022-08-05T20:41:08.503Z,24.10
2022-08-05T20:43:59.803Z,24.10
2022-08-05T20:46:24.917Z,24.20
2022-08-05T20:48:53.044Z,24.20
2022-08-05T20:51:22.263Z,24.30
2022-08-05T20:53:56.564Z,24.20
2022-08-05T20:56:28.208Z,24.20
2022-08-05T20:59:00.104Z,24.10
2022-08-05T21:01:41.754Z,24.10
2022-08-05T21:04:10.871Z,24.10
2022-08-05T21:06:45.538Z,24.10
2022-08-05T21:09:15.062Z,24.00
2022-08-05T21:12:07.354Z,23.90
2022-08-05T21:14:34.896Z,23.90
2022-08-05T21:17:05.633Z,23.80
2022-08-05T21:19:47.375Z,23.80
2022-08-05T21:22:18.297Z,23.80
2022-08-05T21:24:51.926Z,23.80
2022-08-05T21:27:24.992Z,23.80
2022-08-05T21:29:56.573Z,23.70
2022-08-05T21:32:27.689Z,23.70
2022-08-05T21:35:08.250Z,23.60
2022-08-05T21:37:52.650Z,23.60
2022-08-05T21:40:23.185Z,23.50
2022-08-05T21:42:52.600Z,23.40
2022-08-05T21:45:38.089Z,23.40
2022-08-05T21:48:10.559Z,23.30
2022-08-05T21:50:54.035Z,23.30
2022-08-05T21:53:27.694Z,23.20
2022-08-05T21:56:09.516Z,23.10
2022-08-05T21:58:56.964Z,23.10
2022-08-05T22:01:26.097Z,23.00
2022-08-05T22:03:54.071Z,22.90
2022-08-05T22:06:35.341Z,22.80
2022-08-05T22:09:13.627Z,22.80
2022-08-05T22:11:46.959Z,22.70
2022-08-05T22:14:32.931Z,22.70
2022-08-05T22:17:05.016Z,22.70
2022-08-05T22:20:00.423Z,22.60
2022-08-05T22:22:27.049Z,22.50
2022-08-05T22:25:21.276Z,22.50
2022-08-05T22:28:04.957Z,22.40
2022-08-05T22:30:55.458Z,22.40
2022-08-05T22:33:56.860Z,22.30
2022-08-05T22:36:14.455Z,22.20
2022-08-05T22:38:47.958Z,22.20
2022-08-05T22:42:05.401Z,22.20
2022-08-05T22:44:08.322Z,22.10
2022-08-05T22:46:39.799Z,22.10
2022-08-05T22:49:12.058Z,22.10
2022-08-05T22:52:05.558Z,22.00
2022-08-05T22:54:36.671Z,22.00
2022-08-05T22:57:06.113Z,22.00
2022-08-05T22:59:46.370Z,22.00
2022-08-05T23:02:18.684Z,21.90
2022-08-05T23:05:01.420Z,21.90
2022-08-05T23:07:32.579Z,21.90
2022-08-05T23:10:11.099Z,21.80
2022-08-05T23:12:38.629Z,21.80
2022-08-05T23:15:08.740Z,21.80
2022-08-05T23:18:00.944Z,21.70
2022-08-05T23:20:25.186Z,21.70
2022-08-05T23:22:55.701Z,21.60
2022-08-05T23:25:51.408Z,21.60
2022-08-05T23:28:12.189Z,21.60
2022-08-05T23:30:43.768Z,21.60
2022-08-05T23:33:25.641Z,21.50
2022-08-05T23:35:56.236Z,21.50
2022-08-05T23:38:26.858Z,21.40
2022-08-05T23:40:54.346Z,21.40
2022-08-05T23:43:25.300Z,21.30
2022-08-05T23:46:19.590Z,21.30
2022-08-05T23:49:00.999Z,21.20
2022-08-05T23:51:54.354Z,21.20
2022-08-05T23:54:26.049Z,21.20
2022-08-05T23:56:55.939Z,21.10
